Time;durP1;ratioP1;P1;durP2;ratioP2;P2;SDS_P1;SDS_P2;PMS_P1;PMS_P2;Temp;Humidity;BMP_temperature;BMP_pressure;BME280_temperature;BME280_humidity;BME280_pressure;Samples;Min_cycle;Max_cycle;Signal;HPM_P1;HPM_P2
2023/08/16 00:00:30;;;;;;;10.48;6.22;;;;;;;;;;6275554;22;20022;-61
2023/08/16 00:02:57;;;;;;;7.30;5.70;;;;;;;;;;6275883;22;20020;-61
2023/08/16 00:05:24;;;;;;;9.82;5.30;;;;;;;;;;6248577;22;20099;-62
2023/08/16 00:07:50;;;;;;;7.55;5.18;;;;;;;;;;6275306;22;20024;-62
2023/08/16 00:10:16;;;;;;;10.13;4.57;;;;;;;;;;6274075;22;20023;-62
2023/08/16 00:12:42;;;;;;;8.05;5.40;;;;;;;;;;6222342;22;20344;-61
2023/08/16 00:15:08;;;;;;;10.60;5.95;;;;;;;;;;6275172;22;20027;-62
2023/08/16 00:17:34;;;;;;;16.48;10.10;;;;;;;;;;6275180;22;20016;-62
2023/08/16 00:20:00;;;;;;;15.90;11.15;;;;;;;;;;6274779;22;20023;-62
2023/08/16 00:22:27;;;;;;;14.98;11.35;;;;;;;;;;6274633;22;20030;-62
2023/08/16 00:24:53;;;;;;;17.80;11.82;;;;;;;;;;6248064;22;20012;-62
2023/08/16 00:27:19;;;;;;;17.73;12.05;;;;;;;;;;6275350;22;20049;-61
2023/08/16 00:29:47;;;;;;;18.67;12.02;;;;;;;;;;6275103;22;20050;-61
2023/08/16 00:32:13;;;;;;;19.08;13.25;;;;;;;;;;6274230;22;20022;-61
2023/08/16 00:34:39;;;;;;;19.38;12.18;;;;;;;;;;6275383;22;20328;-61
2023/08/16 00:37:05;;;;;;;16.35;11.32;;;;;;;;;;6275264;22;20049;-61
2023/08/16 00:39:31;;;;;;;12.45;9.90;;;;;;;;;;6247573;22;20015;-61
2023/08/16 00:41:57;;;;;;;14.48;10.73;;;;;;;;;;6248338;22;20118;-61
2023/08/16 00:44:23;;;;;;;16.08;10.20;;;;;;;;;;6274208;22;20030;-62
2023/08/16 00:46:49;;;;;;;16.65;10.68;;;;;;;;;;6275123;22;20023;-61
2023/08/16 00:49:15;;;;;;;14.23;10.75;;;;;;;;;;6274168;22;20020;-62
2023/08/16 00:51:42;;;;;;;14.63;9.15;;;;;;;;;;6274482;22;20529;-61
2023/08/16 00:54:08;;;;;;;14.50;9.07;;;;;;;;;;6274400;22;20069;-62
2023/08/16 00:56:35;;;;;;;13.05;9.35;;;;;;;;;;6275070;22;20478;-61
2023/08/16 00:59:01;;;;;;;13.38;9.63;;;;;;;;;;6273338;22;20122;-61
2023/08/16 01:01:27;;;;;;;14.38;9.38;;;;;;;;;;6246292;22;20080;-61
2023/08/16 01:03:57;;;;;;;12.15;9.02;;;;;;;;;;6274617;22;20350;-61
2023/08/16 01:06:24;;;;;;;11.55;8.43;;;;;;;;;;6247872;22;20055;-61
2023/08/16 01:08:51;;;;;;;12.95;9.25;;;;;;;;;;6245976;22;20022;-60
2023/08/16 01:11:23;;;;;;;13.65;9.32;;;;;;;;;;6273036;22;20024;-61
2023/08/16 01:14:02;;;;;;;11.90;8.75;;;;;;;;;;6275404;22;20016;-61
2023/08/16 01:16:28;;;;;;;12.82;8.25;;;;;;;;;;6275202;22;20027;-61
2023/08/16 01:18:55;;;;;;;14.48;7.88;;;;;;;;;;6273522;22;20024;-61
2023/08/16 01:21:23;;;;;;;13.90;7.05;;;;;;;;;;6274942;22;20282;-60
2023/08/16 01:23:56;;;;;;;12.35;7.25;;;;;;;;;;6274527;22;20012;-60
2023/08/16 01:26:23;;;;;;;12.73;7.13;;;;;;;;;;6274465;22;20015;-61
2023/08/16 01:28:52;;;;;;;11.48;7.20;;;;;;;;;;6273448;22;20049;-61
2023/08/16 01:31:18;;;;;;;13.55;7.45;;;;;;;;;;6274629;22;20058;-60
2023/08/16 01:33:45;;;;;;;8.50;6.53;;;;;;;;;;6247263;22;20436;-61
2023/08/16 01:36:11;;;;;;;14.18;7.65;;;;;;;;;;6274305;22;20023;-60
2023/08/16 01:38:37;;;;;;;9.75;7.18;;;;;;;;;;6247132;22;20058;-61
2023/08/16 01:41:08;;;;;;;9.60;6.32;;;;;;;;;;6247377;22;20027;-62
2023/08/16 01:43:34;;;;;;;9.50;6.80;;;;;;;;;;6275161;22;20080;-61
2023/08/16 01:46:03;;;;;;;11.40;6.47;;;;;;;;;;6274652;22;20375;-64
2023/08/16 01:48:29;;;;;;;11.57;5.97;;;;;;;;;;6274025;22;20027;-61
2023/08/16 01:50:55;;;;;;;8.48;6.50;;;;;;;;;;6273862;22;20376;-61
2023/08/16 01:53:21;;;;;;;11.30;6.97;;;;;;;;;;6274649;22;20020;-61
2023/08/16 01:55:47;;;;;;;13.57;6.78;;;;;;;;;;6246540;22;20043;-61
2023/08/16 01:58:13;;;;;;;15.07;7.90;;;;;;;;;;6274048;22;20432;-61
2023/08/16 02:00:39;;;;;;;12.10;7.85;;;;;;;;;;6274228;22;20022;-60
2023/08/16 02:03:05;;;;;;;10.80;7.65;;;;;;;;;;6273725;22;20012;-61
2023/08/16 02:05:31;;;;;;;10.55;7.20;;;;;;;;;;6246525;22;20348;-60
2023/08/16 02:07:57;;;;;;;9.55;6.65;;;;;;;;;;6274553;22;20027;-61
2023/08/16 02:10:24;;;;;;;11.60;7.20;;;;;;;;;;6274036;22;20110;-61
2023/08/16 02:12:50;;;;;;;12.10;7.32;;;;;;;;;;6246738;22;20020;-61
2023/08/16 02:15:16;;;;;;;10.63;7.15;;;;;;;;;;6246277;22;20022;-61
2023/08/16 02:17:42;;;;;;;10.50;7.53;;;;;;;;;;6274135;22;20397;-61
2023/08/16 02:20:08;;;;;;;9.88;6.95;;;;;;;;;;6273271;22;20020;-62
2023/08/16 02:22:34;;;;;;;11.98;7.20;;;;;;;;;;6274645;22;20027;-61
2023/08/16 02:25:01;;;;;;;9.43;6.13;;;;;;;;;;6246828;22;20019;-61
2023/08/16 02:27:27;;;;;;;8.05;6.55;;;;;;;;;;6272006;22;20114;-61
2023/08/16 02:29:53;;;;;;;10.43;6.88;;;;;;;;;;6274068;22;20379;-61
2023/08/16 02:32:19;;;;;;;10.30;6.07;;;;;;;;;;6273481;22;20834;-61
2023/08/16 02:34:45;;;;;;;11.70;6.72;;;;;;;;;;6273749;22;20030;-61
2023/08/16 02:37:11;;;;;;;9.38;6.32;;;;;;;;;;6273142;22;20027;-61
2023/08/16 02:39:37;;;;;;;13.15;7.15;;;;;;;;;;6274364;22;20579;-61
2023/08/16 02:42:03;;;;;;;11.80;6.70;;;;;;;;;;6273889;22;20055;-62
2023/08/16 02:44:29;;;;;;;12.82;7.55;;;;;;;;;;6246445;22;20046;-61
2023/08/16 02:46:55;;;;;;;8.88;6.03;;;;;;;;;;6247421;22;20022;-61
2023/08/16 02:49:21;;;;;;;12.80;6.22;;;;;;;;;;6273604;22;20015;-61
2023/08/16 02:51:47;;;;;;;9.80;6.60;;;;;;;;;;6274371;22;20019;-61
2023/08/16 02:54:14;;;;;;;7.78;6.13;;;;;;;;;;6272632;22;20408;-61
2023/08/16 02:56:41;;;;;;;9.80;6.38;;;;;;;;;;6273334;22;20019;-62
2023/08/16 02:59:09;;;;;;;12.00;7.10;;;;;;;;;;6272469;22;20020;-61
2023/08/16 03:01:35;;;;;;;10.43;6.45;;;;;;;;;;6247354;22;20016;-61
2023/08/16 03:04:01;;;;;;;9.07;6.03;;;;;;;;;;6272967;22;20016;-61
2023/08/16 03:06:27;;;;;;;8.88;5.97;;;;;;;;;;6273793;22;20776;-61
2023/08/16 03:08:53;;;;;;;10.48;6.82;;;;;;;;;;6275069;22;20441;-61
2023/08/16 03:11:19;;;;;;;11.85;6.97;;;;;;;;;;6248258;22;20020;-61
2023/08/16 03:13:45;;;;;;;12.30;6.68;;;;;;;;;;6275910;22;20024;-61
2023/08/16 03:16:11;;;;;;;7.40;5.75;;;;;;;;;;6275997;22;20015;-61
2023/08/16 03:18:38;;;;;;;9.10;6.03;;;;;;;;;;6223107;22;20470;-61
2023/08/16 03:21:04;;;;;;;11.95;6.50;;;;;;;;;;6275032;22;20444;-61
2023/08/16 03:23:30;;;;;;;10.55;7.35;;;;;;;;;;6248057;22;20017;-61
2023/08/16 03:25:57;;;;;;;13.18;7.97;;;;;;;;;;6276020;22;20055;-61
2023/08/16 03:28:23;;;;;;;10.02;6.55;;;;;;;;;;6248475;22;20855;-61
2023/08/16 03:30:49;;;;;;;10.70;6.22;;;;;;;;;;6276271;22;20023;-61
2023/08/16 03:33:15;;;;;;;11.40;5.78;;;;;;;;;;6274129;22;20348;-61
2023/08/16 03:35:41;;;;;;;9.23;5.97;;;;;;;;;;6274970;22;20015;-61
2023/08/16 03:38:07;;;;;;;10.73;6.55;;;;;;;;;;6275870;22;20020;-61
2023/08/16 03:40:33;;;;;;;9.50;6.05;;;;;;;;;;6223820;22;20020;-61
2023/08/16 03:42:59;;;;;;;8.07;6.05;;;;;;;;;;6248299;22;20019;-61
2023/08/16 03:45:26;;;;;;;8.77;5.82;;;;;;;;;;6275684;22;20437;-61
2023/08/16 03:47:56;;;;;;;12.05;6.60;;;;;;;;;;6275540;22;20153;-60
2023/08/16 03:50:22;;;;;;;9.05;5.60;;;;;;;;;;6275193;22;20016;-60
2023/08/16 03:52:48;;;;;;;8.40;6.15;;;;;;;;;;6275368;22;20031;-60
2023/08/16 03:55:15;;;;;;;11.18;6.80;;;;;;;;;;6275811;22;20060;-60
2023/08/16 03:57:41;;;;;;;11.23;6.63;;;;;;;;;;6276097;22;20026;-61
2023/08/16 04:00:11;;;;;;;11.18;6.82;;;;;;;;;;6275176;22;20076;-61
2023/08/16 04:02:40;;;;;;;;;;;12.40;99.90;;;;;;6248021;22;20337;-61
2023/08/16 04:05:10;;;;;;;8.82;6.55;;;;;;;;;;6274651;22;19919;-61
2023/08/16 04:07:36;;;;;;;11.15;6.78;;;;;;;;;;6275775;22;20023;-60
2023/08/16 04:10:02;;;;;;;8.50;6.55;;;;;;;;;;6275428;22;20079;-62
2023/08/16 04:12:28;;;;;;;10.98;6.30;;;;;;;;;;6274834;22;20024;-60
2023/08/16 04:14:54;;;;;;;13.73;6.35;;;;;;;;;;6248556;22;20015;-61
2023/08/16 04:17:20;;;;;;;8.80;6.25;;;;;;;;;;6247219;22;20023;-61
2023/08/16 04:19:46;;;;;;;10.05;6.55;;;;;;;;;;6275208;22;20106;-61
2023/08/16 04:22:12;;;;;;;10.90;5.45;;;;;;;;;;6274617;22;20019;-60
2023/08/16 04:24:38;;;;;;;9.65;6.15;;;;;;;;;;6248587;22;20337;-61
2023/08/16 04:27:05;;;;;;;11.85;6.80;;;;;;;;;;6275092;22;20164;-61
2023/08/16 04:29:31;;;;;;;15.85;7.00;;;;;;;;;;6247899;22;20029;-61
2023/08/16 04:31:58;;;;;;;7.70;6.00;;;;;;;;;;6274741;22;20020;-61
2023/08/16 04:34:24;;;;;;;9.95;7.25;;;;;;;;;;6248109;22;20022;-60
2023/08/16 04:36:50;;;;;;;10.75;6.45;;;;;;;;;;6275342;22;20055;-61
2023/08/16 04:39:16;;;;;;;12.25;7.35;;;;;;;;;;6273793;22;20055;-61
2023/08/16 04:41:42;;;;;;;11.80;7.93;;;;;;;;;;6275009;22;20012;-61
2023/08/16 04:44:08;;;;;;;9.82;7.00;;;;;;;;;;6274803;22;20166;-60
2023/08/16 04:46:34;;;;;;;12.45;7.95;;;;;;;;;;6274198;22;20027;-60
2023/08/16 04:49:00;;;;;;;13.13;7.85;;;;;;;;;;6274300;22;20444;-61
2023/08/16 04:51:26;;;;;;;10.88;7.55;;;;;;;;;;6275060;22;20271;-60
2023/08/16 04:53:52;;;;;;;11.52;7.07;;;;;;;;;;6248136;22;20020;-61
2023/08/16 04:56:18;;;;;;;9.68;6.85;;;;;;;;;;6275200;22;20016;-60
2023/08/16 04:58:45;;;;;;;9.70;6.28;;;;;;;;;;6274583;22;20146;-61
2023/08/16 05:01:11;;;;;;;8.80;6.68;;;;;;;;;;6221726;22;20030;-61
2023/08/16 05:03:37;;;;;;;10.25;6.43;;;;;;;;;;6274757;22;20023;-60
2023/08/16 05:06:04;;;;;;;13.48;7.63;;;;;;;;;;6247971;22;20023;-62
2023/08/16 05:08:30;;;;;;;12.07;7.88;;;;;;;;;;6247544;22;20020;-61
2023/08/16 05:10:57;;;;;;;14.35;7.63;;;;;;;;;;6275414;22;20212;-60
2023/08/16 05:13:23;;;;;;;7.75;6.28;;;;;;;;;;6246308;22;20024;-60
2023/08/16 05:15:49;;;;;;;13.85;7.30;;;;;;;;;;6274660;22;20098;-60
2023/08/16 05:18:16;;;;;;;12.05;7.20;;;;;;;;;;6273894;22;20153;-60
2023/08/16 05:20:42;;;;;;;10.43;7.20;;;;;;;;;;6273529;22;20024;-60
2023/08/16 05:23:08;;;;;;;10.68;6.55;;;;;;;;;;6272898;22;20039;-61
2023/08/16 05:25:37;;;;;;;15.77;7.55;;;;;;;;;;6275008;22;20022;-60
2023/08/16 05:28:04;;;;;;;12.07;7.03;;;;;;;;;;6274090;22;20096;-62
2023/08/16 05:30:30;;;;;;;9.05;6.63;;;;;;;;;;6246299;22;20038;-63
2023/08/16 05:32:56;;;;;;;8.60;7.05;;;;;;;;;;6274898;22;20019;-63
2023/08/16 05:35:22;;;;;;;10.43;6.72;;;;;;;;;;6274230;22;20927;-60
2023/08/16 05:37:50;;;;;;;9.05;6.97;;;;;;;;;;6247324;22;20146;-60
2023/08/16 05:40:16;;;;;;;10.55;7.25;;;;;;;;;;6271994;22;20035;-61
2023/08/16 05:42:42;;;;;;;9.82;8.00;;;;;;;;;;6273420;22;20019;-61
2023/08/16 05:45:09;;;;;;;10.82;8.10;;;;;;;;;;6273556;22;20020;-61
2023/08/16 05:47:35;;;;;;;10.18;7.90;;;;;;;;;;6273967;22;20353;-61
2023/08/16 05:50:01;;;;;;;11.63;8.40;;;;;;;;;;6274302;22;20833;-60
2023/08/16 05:52:27;;;;;;;9.60;7.75;;;;;;;;;;6273471;22;20023;-61
2023/08/16 05:54:53;;;;;;;13.25;7.30;;;;;;;;;;6248038;22;20020;-63
2023/08/16 05:57:20;;;;;;;11.48;7.97;;;;;;;;;;6246074;22;20134;-63
2023/08/16 05:59:46;;;;;;;8.52;6.97;;;;;;;;;;6247793;22;20344;-63
2023/08/16 06:02:12;;;;;;;11.32;7.70;;;;;;;;;;6246758;22;20444;-63
2023/08/16 06:04:38;;;;;;;14.07;7.57;;;;;;;;;;6248055;22;20012;-63
2023/08/16 06:07:04;;;;;;;9.73;7.43;;;;;;;;;;6272947;22;20024;-63
2023/08/16 06:09:31;;;;;;;10.85;7.00;;;;;;;;;;6272952;22;20019;-64
2023/08/16 06:12:00;;;;;;;12.32;7.28;;;;;;;;;;6266731;22;20019;-64
2023/08/16 06:14:26;;;;;;;11.43;7.35;;;;;;;;;;6274296;22;20106;-64
2023/08/16 06:16:52;;;;;;;9.23;6.40;;;;;;;;;;6275152;22;20025;-64
2023/08/16 06:19:18;;;;;;;10.40;7.32;;;;;;;;;;6274605;22;20023;-64
2023/08/16 06:21:44;;;;;;;11.82;6.53;;;;;;;;;;6247803;22;20019;-64
2023/08/16 06:24:10;;;;;;;9.07;6.03;;;;;;;;;;6246169;22;20332;-64
2023/08/16 06:26:36;;;;;;;13.02;6.50;;;;;;;;;;6271509;22;20127;-66
2023/08/16 06:29:02;;;;;;;9.68;5.88;;;;;;;;;;6271583;22;20016;-65
2023/08/16 06:31:28;;;;;;;8.10;5.80;;;;;;;;;;6272439;22;20031;-65
2023/08/16 06:33:54;;;;;;;9.15;6.00;;;;;;;;;;6272334;22;20012;-65
2023/08/16 06:36:20;;;;;;;10.43;6.28;;;;;;;;;;6271709;22;20019;-65
2023/08/16 06:38:46;;;;;;;8.93;5.65;;;;;;;;;;6270865;22;20028;-65
2023/08/16 06:41:16;;;;;;;9.80;5.47;;;;;;;;;;6270154;22;20106;-65
2023/08/16 06:43:42;;;;;;;9.20;5.10;;;;;;;;;;6271646;22;20030;-65
2023/08/16 06:46:08;;;;;;;10.25;5.53;;;;;;;;;;6273406;22;20042;-65
2023/08/16 06:48:34;;;;;;;13.57;5.97;;;;;;;;;;6273714;22;20019;-65
2023/08/16 06:51:00;;;;;;;6.22;4.40;;;;;;;;;;6276061;22;20015;-65
2023/08/16 06:53:27;;;;;;;16.75;6.32;;;;;;;;;;6249226;22;20024;-65
2023/08/16 06:55:56;;;;;;;5.95;4.47;;;;;;;;;;6275461;22;20436;-65
2023/08/16 06:58:22;;;;;;;6.50;4.30;;;;;;;;;;6275857;22;20117;-65
2023/08/16 07:00:49;;;;;;;9.90;5.03;;;;;;;;;;6275702;22;20020;-63
2023/08/16 07:03:16;;;;;;;8.10;5.07;;;;;;;;;;6222924;22;20020;-66
2023/08/16 07:05:42;;;;;;;7.63;4.45;;;19.30;99.90;;;;;;6249254;22;20129;-66
2023/08/16 07:08:08;;;;;;;6.70;4.63;;;;;;;;;;6275247;22;20019;-66
2023/08/16 07:10:34;;;;;;;8.05;4.35;;;;;;;;;;6247696;22;20051;-65
2023/08/16 07:13:00;;;;;;;10.95;4.93;;;19.80;99.90;;;;;;6273425;22;20070;-66
2023/08/16 07:15:26;;;;;;;5.47;3.72;;;;;;;;;;6248357;22;20031;-66
2023/08/16 07:17:51;;;;;;;7.65;4.45;;;20.30;99.90;;;;;;6274578;22;20059;-66
2023/08/16 07:20:17;;;;;;;4.70;3.63;;;20.50;99.90;;;;;;6247099;22;20022;-75
2023/08/16 07:22:43;;;;;;;6.85;3.65;;;;;;;;;;6247122;22;20008;-67
2023/08/16 07:25:11;;;;;;;5.20;3.63;;;20.90;99.90;;;;;;6220435;22;20527;-67
2023/08/16 07:27:39;;;;;;;6.68;3.65;;;;;;;;;;6223247;22;20016;-63
2023/08/16 07:30:05;;;;;;;6.78;3.60;;;20.80;99.90;;;;;;6246822;22;20011;-63
2023/08/16 07:32:31;;;;;;;9.15;4.18;;;20.80;99.90;;;;;;6274447;22;20026;-59
2023/08/16 07:34:57;;;;;;;6.50;3.53;;;20.80;99.90;;;;;;6249018;22;20038;-65
2023/08/16 07:37:28;;;;;;;8.23;3.35;;;;;;;;;;6248726;22;20095;-63
2023/08/16 07:39:55;;;;;;;6.30;3.58;;;21.00;99.90;;;;;;6275693;22;20016;-65
2023/08/16 07:42:22;;;;;;;7.20;3.80;;;;;;;;;;6248362;22;20012;-66
2023/08/16 07:44:48;;;;;;;6.20;3.58;;;;;;;;;;6224017;22;20016;-67
2023/08/16 07:47:14;;;;;;;7.20;3.60;;;;;;;;;;6275925;22;20094;-66
2023/08/16 07:49:41;;;;;;;8.15;4.22;;;21.30;99.90;;;;;;6275282;22;20058;-62
2023/08/16 07:52:07;;;;;;;8.05;3.72;;;21.60;99.90;;;;;;6223137;22;20094;-63
2023/08/16 07:54:33;;;;;;;10.00;3.42;;;21.80;99.90;;;;;;6222797;22;20317;-65
2023/08/16 07:56:59;;;;;;;9.13;3.83;;;22.10;99.90;;;;;;6223562;22;20031;-63
2023/08/16 07:59:24;;;;;;;6.78;3.42;;;22.00;99.90;;;;;;6274566;22;20018;-67
2023/08/16 08:01:51;;;;;;;9.60;3.80;;;22.10;99.90;;;;;;6275654;22;20340;-66
2023/08/16 08:04:19;;;;;;;9.30;3.55;;;22.30;99.90;;;;;;6223135;22;20016;-61
2023/08/16 08:06:46;;;;;;;7.72;3.08;;;22.20;99.90;;;;;;6275193;22;20028;-61
2023/08/16 08:09:15;;;;;;;8.07;2.80;;;22.40;99.90;;;;;;6222507;22;20425;-61
2023/08/16 08:11:40;;;;;;;7.25;2.95;;;22.20;99.90;;;;;;6217687;23;20024;-62
2023/08/16 08:14:06;;;;;;;5.47;2.35;;;;;;;;;;6243891;23;20023;-63
2023/08/16 08:16:32;;;;;;;5.03;2.42;;;22.40;99.90;;;;;;6245233;23;20111;-63
2023/08/16 08:18:58;;;;;;;5.45;2.03;;;22.30;99.90;;;;;;6241428;23;20052;-63
2023/08/16 08:21:24;;;;;;;5.85;2.05;;;22.30;99.90;;;;;;6242551;23;20444;-63
2023/08/16 08:23:49;;;;;;;6.70;2.30;;;22.70;99.90;;;;;;6217382;23;20337;-63
2023/08/16 08:26:16;;;;;;;5.95;2.80;;;22.70;99.90;;;;;;6244949;23;20020;-63
2023/08/16 08:28:42;;;;;;;4.82;3.00;;;22.00;99.90;;;;;;6217042;23;20485;-65
2023/08/16 08:31:07;;;;;;;5.25;3.20;;;21.70;99.90;;;;;;6245089;23;20070;-59
2023/08/16 08:33:33;;;;;;;7.60;3.15;;;21.60;99.90;;;;;;6244088;23;20042;-60
2023/08/16 08:35:59;;;;;;;6.40;2.70;;;21.80;99.90;;;;;;6244525;23;20059;-60
2023/08/16 08:38:25;;;;;;;5.68;2.08;;;22.00;99.90;;;;;;6242849;23;20031;-59
2023/08/16 08:40:57;;;;;;;6.82;2.92;;;22.10;99.90;;;;;;6245044;23;20444;-63
2023/08/16 08:43:44;;;;;;;6.93;1.92;;;23.00;99.90;;;;;;6244681;22;20059;-64
2023/08/16 08:46:11;;;;;;;7.20;2.15;;;22.90;99.90;;;;;;6216867;23;20028;-64
2023/08/16 08:48:37;;;;;;;5.30;2.05;;;22.20;99.90;;;;;;6245196;22;20012;-63
2023/08/16 08:51:03;;;;;;;4.57;1.70;;;;;;;;;;6217991;23;20456;-66
2023/08/16 08:53:29;;;;;;;2.85;1.38;;;;;;;;;;6242522;22;20016;-65
2023/08/16 08:56:01;;;;;;;4.82;2.05;;;21.50;99.90;;;;;;6243149;23;20074;-64
2023/08/16 08:58:29;;;;;;;4.40;2.00;;;21.30;99.90;;;;;;6218062;23;20047;-63
2023/08/16 09:00:56;;;;;;;5.65;1.75;;;21.60;99.90;;;;;;6218120;23;20020;-64
2023/08/16 09:03:23;;;;;;;4.10;1.95;;;21.80;99.90;;;;;;6242534;23;20016;-62
2023/08/16 09:05:52;;;;;;;6.28;1.98;;;22.00;99.90;;;;;;6242326;23;20012;-63
2023/08/16 09:08:22;;;;;;;4.60;2.35;;;21.90;99.90;;;;;;6242628;23;20449;-62
2023/08/16 09:10:50;;;;;;;3.13;2.03;;;22.10;99.90;;;;;;6243183;23;20027;-62
2023/08/16 09:13:17;;;;;;;4.95;1.75;;;22.70;99.90;;;;;;6242707;23;20107;-64
2023/08/16 09:15:42;;;;;;;2.33;1.13;;;22.40;99.90;;;;;;6217723;23;20023;-64
2023/08/16 09:18:13;;;;;;;5.05;1.70;;;22.90;99.90;;;;;;6244197;23;20345;-62
2023/08/16 09:20:40;;;;;;;5.75;2.47;;;23.10;99.90;;;;;;6217759;23;20085;-63
2023/08/16 09:23:07;;;;;;;7.28;1.58;;;24.40;99.90;;;;;;6242431;23;20055;-63
2023/08/16 09:25:33;;;;;;;4.30;1.67;;;23.50;99.90;;;;;;6218010;23;20020;-63
2023/08/16 09:28:01;;;;;;;5.78;1.50;;;24.20;99.90;;;;;;6244806;23;20023;-62
2023/08/16 09:30:28;;;;;;;5.70;1.63;;;23.50;99.90;;;;;;6217916;23;20039;-63
2023/08/16 09:32:55;;;;;;;6.15;1.70;;;23.10;99.90;;;;;;6242811;23;20016;-63
2023/08/16 09:35:32;;;;;;;2.55;1.30;;;22.70;99.90;;;;;;6215293;23;20471;-63
2023/08/16 09:37:58;;;;;;;3.33;1.38;;;22.80;99.90;;;;;;6242131;23;20472;-64
2023/08/16 09:40:24;;;;;;;5.18;1.42;;;22.60;99.90;;;;;;6192064;23;20073;-63
2023/08/16 09:42:51;;;;;;;2.80;1.00;;;22.50;99.90;;;;;;6217816;23;20020;-65
2023/08/16 09:45:34;;;;;;;2.65;1.23;;;22.60;99.90;;;;;;6241719;23;20020;-63
2023/08/16 09:48:04;;;;;;;5.15;2.10;;;22.80;99.90;;;;;;6243077;23;20437;-64
2023/08/16 09:50:35;;;;;;;2.55;1.30;;;22.50;99.90;;;;;;6243909;22;20385;-62
2023/08/16 09:53:04;;;;;;;6.07;1.67;;;22.20;99.90;;;;;;6244703;22;20055;-61
2023/08/16 09:55:35;;;;;;;2.63;1.07;;;22.50;99.90;;;;;;6243234;23;20012;-64
2023/08/16 09:58:02;;;;;;;3.42;1.27;;;22.60;99.90;;;;;;6242985;22;20047;-64
2023/08/16 10:00:30;;;;;;;2.95;1.65;;;22.60;99.90;;;;;;6241882;23;20097;-66
2023/08/16 10:02:56;;;;;;;3.75;1.45;;;22.70;99.90;;;;;;6242603;23;20020;-70
2023/08/16 10:05:25;;;;;;;3.55;1.20;;;22.70;99.90;;;;;;6216052;23;20337;-64
2023/08/16 10:07:59;;;;;;;4.32;1.15;;;23.00;99.90;;;;;;6243621;22;20031;-65
2023/08/16 10:10:25;;;;;;;4.80;1.38;;;;;;;;;;6245268;22;20028;-68
2023/08/16 10:12:53;;;;;;;3.65;1.58;;;22.40;99.90;;;;;;6274058;22;20034;-67
2023/08/16 10:15:19;;;;;;;4.22;1.38;;;22.70;99.90;;;;;;6222151;22;20034;-67
2023/08/16 10:17:52;;;;;;;3.17;1.20;;;23.10;99.90;;;;;;6222785;22;20448;-67
2023/08/16 10:20:25;;;;;;;5.28;1.50;;;23.40;99.90;;;;;;6276197;22;20091;-66
2023/08/16 10:23:02;;;;;;;6.38;1.65;;;23.40;99.90;;;;;;6223565;22;20102;-68
2023/08/16 10:25:45;;;;;;;4.50;1.23;;;23.10;99.90;;;;;;6275288;22;20464;-69
2023/08/16 10:28:11;;;;;;;3.83;1.10;;;;;;;;;;6223117;22;20440;-67
2023/08/16 10:30:39;;;;;;;2.38;1.10;;;23.40;99.90;;;;;;6224065;22;20024;-68
2023/08/16 10:33:13;;;;;;;5.32;1.25;;;23.60;99.90;;;;;;6222277;22;20393;-70
2023/08/16 10:35:41;;;;;;;3.75;0.80;;;23.30;99.90;;;;;;6248292;22;20023;-68
2023/08/16 10:38:07;;;;;;;3.38;1.55;;;23.70;99.90;;;;;;6249454;22;20015;-66
2023/08/16 10:40:33;;;;;;;2.70;1.02;;;24.20;99.90;;;;;;6249468;22;20019;-69
2023/08/16 10:43:04;;;;;;;3.20;1.17;;;23.80;99.90;;;;;;6248876;22;20011;-69
2023/08/16 10:45:34;;;;;;;2.00;0.90;;;24.40;99.90;;;;;;6277578;22;20069;-69
2023/08/16 10:48:09;;;;;;;;;;;24.40;99.90;;;;;;6224273;22;20020;-68
2023/08/16 10:50:35;;;;;;;3.67;1.00;;;24.80;99.90;;;;;;6276358;22;19984;-67
2023/08/16 10:53:01;;;;;;;4.32;1.00;;;24.50;99.90;;;;;;6249700;22;20452;-65
2023/08/16 10:55:27;;;;;;;4.72;1.02;;;24.90;99.90;;;;;;6276607;22;20015;-65
2023/08/16 10:57:53;;;;;;;2.20;0.93;;;24.80;99.90;;;;;;6224391;22;20436;-67
2023/08/16 11:00:19;;;;;;;2.92;0.90;;;24.80;99.90;;;;;;6222831;22;20384;-64
2023/08/16 11:02:49;;;;;;;2.30;0.93;;;24.00;99.90;;;;;;6223229;22;20085;-64
2023/08/16 11:05:21;;;;;;;4.35;1.00;;;24.20;99.90;;;;;;6248388;22;20020;-67
2023/08/16 11:07:47;;;;;;;2.67;1.17;;;24.30;99.90;;;;;;6223765;22;20405;-65
2023/08/16 11:10:14;;;;;;;3.55;0.90;;;24.20;99.90;;;;;;6222340;22;20020;-67
2023/08/16 11:12:42;;;;;;;3.42;1.10;;;;;;;;;;6274980;22;20015;-65
2023/08/16 11:15:09;;;;;;;4.93;1.55;;;24.10;99.90;;;;;;6248583;22;20062;-65
2023/08/16 11:17:42;;;;;;;3.08;1.05;;;24.00;99.90;;;;;;6247837;22;20034;-66
2023/08/16 11:20:09;;;;;;;3.90;1.17;;;24.40;99.90;;;;;;6248340;22;20340;-63
2023/08/16 11:22:35;;;;;;;5.35;1.27;;;24.50;99.90;;;;;;6248971;22;20016;-63
2023/08/16 11:25:01;;;;;;;3.03;1.30;;;24.20;99.90;;;;;;6275921;22;20090;-63
2023/08/16 11:27:28;;;;;;;1.88;0.80;;;24.50;99.90;;;;;;6223615;22;20023;-63
2023/08/16 11:29:55;;;;;;;3.60;0.90;;;24.90;99.90;;;;;;6275113;22;20024;-64
2023/08/16 11:32:36;;;;;;;3.03;1.00;;;25.00;99.90;;;;;;6248630;22;20019;-63
2023/08/16 11:35:06;;;;;;;2.63;1.17;;;24.60;99.90;;;;;;6223601;22;20073;-68
2023/08/16 11:37:33;;;;;;;2.50;1.10;;;;;;;;;;6223169;22;20019;-65
2023/08/16 11:40:00;;;;;;;7.85;1.33;;;25.10;99.90;;;;;;6223953;22;20020;-65
2023/08/16 11:42:30;;;;;;;3.95;1.15;;;24.70;99.90;;;;;;6247795;22;20121;-62
2023/08/16 11:44:56;;;;;;;;;;;24.40;99.90;;;;;;6276332;22;20055;-61
2023/08/16 11:47:23;;;;;;;3.08;1.08;;;23.70;99.90;;;;;;6222728;22;19926;-62
2023/08/16 11:49:49;;;;;;;4.90;1.48;;;;;;;;;;6248472;22;20020;-62
2023/08/16 11:52:25;;;;;;;3.45;1.20;;;23.70;99.90;;;;;;6275670;22;20016;-62
2023/08/16 11:55:05;;;;;;;1.92;1.10;;;22.90;99.90;;;;;;6223706;22;20056;-63
2023/08/16 11:57:31;;;;;;;;;;;22.50;99.90;;;;;;6276535;22;20019;-63
2023/08/16 11:59:57;;;;;;;3.30;0.95;;;;;;;;;;6247324;22;19951;-63
2023/08/16 12:02:24;;;;;;;3.08;1.00;;;;;;;;;;6248494;22;20124;-61
2023/08/16 12:04:51;;;;;;;2.67;1.45;;;22.60;99.90;;;;;;6222720;22;20019;-63
2023/08/16 12:07:18;;;;;;;3.92;1.00;;;23.10;99.90;;;;;;6275398;22;20039;-63
2023/08/16 12:09:43;;;;;;;6.25;1.20;;;23.50;99.90;;;;;;6247844;22;20019;-64
2023/08/16 12:12:10;;;;;;;4.07;1.05;;;23.30;99.90;;;;;;6247704;22;20328;-67
2023/08/16 12:14:36;;;;;;;3.70;1.20;;;;;;;;;;6221855;22;20136;-66
2023/08/16 12:17:03;;;;;;;2.28;1.42;;;;;;;;;;6248562;22;20099;-68
2023/08/16 12:19:29;;;;;;;5.07;1.40;;;;;;;;;;6275976;22;20458;-66
2023/08/16 12:21:55;;;;;;;4.03;1.60;;;;;;;;;;6247689;22;20026;-66
2023/08/16 12:24:21;;;;;;;2.80;1.40;;;;;;;;;;6247737;22;20509;-66
2023/08/16 12:26:47;;;;;;;3.28;1.52;;;23.80;99.90;;;;;;6249041;22;20020;-66
2023/08/16 12:29:13;;;;;;;3.40;1.27;;;24.20;99.90;;;;;;6247738;22;20077;-66
2023/08/16 12:31:38;;;;;;;4.43;1.33;;;24.80;99.90;;;;;;6247975;22;20433;-66
2023/08/16 12:34:07;;;;;;;4.70;1.40;;;25.00;99.90;;;;;;6275153;22;20502;-67
2023/08/16 12:36:33;;;;;;;2.78;1.05;;;25.10;99.90;;;;;;6248481;22;20066;-67
2023/08/16 12:38:59;;;;;;;4.38;1.20;;;;;;;;;;6275775;22;20008;-66
2023/08/16 12:41:25;;;;;;;4.90;1.30;;;;;;;;;;6247284;22;20515;-66
2023/08/16 12:43:52;;;;;;;3.40;1.15;;;;;;;;;;6274615;22;20016;-66
2023/08/16 12:46:18;;;;;;;3.50;1.10;;;;;;;;;;6222927;22;20035;-66
2023/08/16 12:48:45;;;;;;;3.42;1.10;;;;;;;;;;6248675;22;20019;-66
2023/08/16 12:51:11;;;;;;;4.97;1.08;;;;;;;;;;6247729;22;20095;-67
2023/08/16 12:53:37;;;;;;;3.05;1.20;;;;;;;;;;6275552;22;20019;-67
2023/08/16 12:56:03;;;;;;;3.58;1.10;;;24.00;99.90;;;;;;6247956;22;20019;-67
2023/08/16 12:58:29;;;;;;;1.92;1.00;;;;;;;;;;6247913;22;20023;-67
2023/08/16 13:00:55;;;;;;;4.07;1.20;;;;;;;;;;6248185;22;20016;-68
2023/08/16 13:03:21;;;;;;;2.50;1.08;;;;;;;;;;6247712;22;20023;-67
2023/08/16 13:05:48;;;;;;;4.50;1.13;;;;;;;;;;6248452;22;20011;-67
2023/08/16 13:08:14;;;;;;;2.55;0.90;;;;;;;;;;6247372;22;20117;-66
2023/08/16 13:10:40;;;;;;;2.13;1.02;;;24.90;99.90;;;;;;6247837;22;20507;-67
2023/08/16 13:13:16;;;;;;;2.85;1.20;;;;;;;;;;5087947;27;20397;-66
2023/08/16 13:15:42;;;;;;;3.72;0.90;;;;;;;;;;5072848;28;20053;-65
2023/08/16 13:18:08;;;;;;;5.35;1.35;;;;;;;;;;5066912;28;20056;-66
2023/08/16 13:20:34;;;;;;;4.85;1.02;;;23.90;99.90;;;;;;5066937;28;20223;-66
2023/08/16 13:23:00;;;;;;;4.28;1.20;;;;;;;;;;5067891;28;20047;-66
2023/08/16 13:25:26;;;;;;;3.40;0.82;;;;;;;;;;5067201;28;20044;-67
2023/08/16 13:27:52;;;;;;;3.15;0.98;;;24.40;99.90;;;;;;5066305;28;20067;-66
2023/08/16 13:30:18;;;;;;;2.45;0.80;;;24.40;99.90;;;;;;5087912;28;20041;-66
2023/08/16 13:32:44;;;;;;;2.97;0.73;;;;;;;;;;5087723;28;20059;-66
2023/08/16 13:35:10;;;;;;;2.70;0.90;;;;;;;;;;5070191;28;20037;-67
2023/08/16 13:37:36;;;;;;;3.08;1.05;;;;;;;;;;5067065;28;20049;-67
2023/08/16 13:40:03;;;;;;;2.67;1.00;;;;;;;;;;5067838;28;20462;-68
2023/08/16 13:42:29;;;;;;;2.25;0.80;;;;;;;;;;5065559;28;20497;-67
2023/08/16 13:44:55;;;;;;;2.75;1.08;;;;;;;;;;5067309;28;20056;-68
2023/08/16 13:47:20;;;;;;;2.63;0.93;;;24.90;99.90;;;;;;5050618;28;20131;-67
2023/08/16 13:49:46;;;;;;;2.67;0.90;;;;;;;;;;5067053;28;20435;-66
2023/08/16 13:52:12;;;;;;;3.08;1.20;;;;;;;;;;5068123;28;20416;-67
2023/08/16 13:54:38;;;;;;;3.42;0.80;;;;;;;;;;5072856;28;20044;-66